FDST

Siteki Airport

Siteki, Swaziland
METAR FDST 221700Z AUTO 20005KT //// // ////// 20/17 Q1017
Observed Flight Rules
Apr-22 @ 17:00 UTC (an hour ago)
Wind
200° at 5 knots
Temperatures Readings
Current 20°C / 68°F
Dewpoint 17°C / 63°F
Humidity 83%
Altimeter 30.03" Hg
Pressure 1017 hPa
Elevation 667
METAR FDST 221700Z AUTO 20005KT //// // ////// 20/17 Q1017
Observed Flight Rules
Apr-22 @ 17:00 UTC
(an hour ago)
Wind
200° at 5 knots
Temperature Dewpoint
20°C / 68°F 17°C / 63°F
Humidity Altimeter Pressure
83% 30.03" Hg 1017 hPa